sensor_id;sensor_type;location;lat;lon;timestamp;temperature;humidity
24426;DHT22;12611;44.446;26.000;2022-10-22T00:01:13;11.60;69.70
24426;DHT22;12611;44.446;26.000;2022-10-22T00:03:41;11.50;70.00
24426;DHT22;12611;44.446;26.000;2022-10-22T00:06:10;11.60;70.00
24426;DHT22;12611;44.446;26.000;2022-10-22T00:08:38;11.60;70.00
24426;DHT22;12611;44.446;26.000;2022-10-22T00:11:12;11.50;69.90
24426;DHT22;12611;44.446;26.000;2022-10-22T00:13:41;11.50;69.90
24426;DHT22;12611;44.446;26.000;2022-10-22T00:16:10;11.50;70.00
24426;DHT22;12611;44.446;26.000;2022-10-22T00:18:38;11.60;70.00
24426;DHT22;12611;44.446;26.000;2022-10-22T00:21:07;11.60;70.70
24426;DHT22;12611;44.446;26.000;2022-10-22T00:23:35;11.60;70.50
24426;DHT22;12611;44.446;26.000;2022-10-22T00:26:07;11.60;70.40
24426;DHT22;12611;44.446;26.000;2022-10-22T00:28:37;11.60;70.20
24426;DHT22;12611;44.446;26.000;2022-10-22T00:31:05;11.60;70.20
24426;DHT22;12611;44.446;26.000;2022-10-22T00:33:34;11.60;70.20
24426;DHT22;12611;44.446;26.000;2022-10-22T00:36:02;11.60;70.10
24426;DHT22;12611;44.446;26.000;2022-10-22T00:38:30;11.60;70.00
24426;DHT22;12611;44.446;26.000;2022-10-22T00:40:59;11.60;70.00
24426;DHT22;12611;44.446;26.000;2022-10-22T00:43:32;11.60;70.00
24426;DHT22;12611;44.446;26.000;2022-10-22T00:46:02;11.60;69.90
24426;DHT22;12611;44.446;26.000;2022-10-22T00:48:31;11.50;69.90
24426;DHT22;12611;44.446;26.000;2022-10-22T00:51:02;11.50;69.90
24426;DHT22;12611;44.446;26.000;2022-10-22T00:53:34;11.50;69.90
24426;DHT22;12611;44.446;26.000;2022-10-22T00:56:04;11.50;69.90
24426;DHT22;12611;44.446;26.000;2022-10-22T00:58:38;11.50;70.00
24426;DHT22;12611;44.446;26.000;2022-10-22T01:01:09;11.50;70.00
24426;DHT22;12611;44.446;26.000;2022-10-22T01:03:40;11.50;70.10
24426;DHT22;12611;44.446;26.000;2022-10-22T01:06:11;11.50;70.00
24426;DHT22;12611;44.446;26.000;2022-10-22T01:08:47;11.40;70.10
24426;DHT22;12611;44.446;26.000;2022-10-22T01:11:22;11.40;70.10
24426;DHT22;12611;44.446;26.000;2022-10-22T01:13:59;11.40;70.10
24426;DHT22;12611;44.446;26.000;2022-10-22T01:16:36;11.40;70.10
24426;DHT22;12611;44.446;26.000;2022-10-22T01:19:20;11.40;70.20
24426;DHT22;12611;44.446;26.000;2022-10-22T01:21:55;11.40;70.30
24426;DHT22;12611;44.446;26.000;2022-10-22T01:24:34;11.30;70.20
24426;DHT22;12611;44.446;26.000;2022-10-22T01:27:19;11.30;70.20
24426;DHT22;12611;44.446;26.000;2022-10-22T01:29:51;11.30;70.20
24426;DHT22;12611;44.446;26.000;2022-10-22T01:32:22;11.30;70.20
24426;DHT22;12611;44.446;26.000;2022-10-22T01:34:57;11.40;70.30
24426;DHT22;12611;44.446;26.000;2022-10-22T01:37:29;11.40;71.20
24426;DHT22;12611;44.446;26.000;2022-10-22T01:40:00;11.40;71.20
24426;DHT22;12611;44.446;26.000;2022-10-22T01:42:28;11.40;70.30
24426;DHT22;12611;44.446;26.000;2022-10-22T01:44:58;11.40;70.30
24426;DHT22;12611;44.446;26.000;2022-10-22T01:47:35;11.40;70.40
24426;DHT22;12611;44.446;26.000;2022-10-22T01:50:18;11.40;70.60
24426;DHT22;12611;44.446;26.000;2022-10-22T01:56:16;11.40;70.70
24426;DHT22;12611;44.446;26.000;2022-10-22T01:58:54;11.30;70.70
24426;DHT22;12611;44.446;26.000;2022-10-22T02:01:30;11.30;70.90
24426;DHT22;12611;44.446;26.000;2022-10-22T02:04:02;11.30;70.90
24426;DHT22;12611;44.446;26.000;2022-10-22T02:06:33;11.30;70.90
24426;DHT22;12611;44.446;26.000;2022-10-22T02:09:03;11.30;70.90
24426;DHT22;12611;44.446;26.000;2022-10-22T02:11:32;11.30;70.90
24426;DHT22;12611;44.446;26.000;2022-10-22T02:14:02;11.30;70.90
24426;DHT22;12611;44.446;26.000;2022-10-22T02:16:35;11.30;71.00
24426;DHT22;12611;44.446;26.000;2022-10-22T02:19:10;11.30;71.10
24426;DHT22;12611;44.446;26.000;2022-10-22T02:21:41;11.30;71.10
24426;DHT22;12611;44.446;26.000;2022-10-22T02:24:10;11.30;71.10
24426;DHT22;12611;44.446;26.000;2022-10-22T02:26:41;11.30;71.10
24426;DHT22;12611;44.446;26.000;2022-10-22T02:29:17;11.30;71.20
24426;DHT22;12611;44.446;26.000;2022-10-22T02:31:47;11.30;71.30
24426;DHT22;12611;44.446;26.000;2022-10-22T02:34:22;11.30;71.30
24426;DHT22;12611;44.446;26.000;2022-10-22T02:36:51;11.30;71.50
24426;DHT22;12611;44.446;26.000;2022-10-22T02:39:21;11.30;71.40
24426;DHT22;12611;44.446;26.000;2022-10-22T02:41:49;11.30;71.50
24426;DHT22;12611;44.446;26.000;2022-10-22T02:44:20;11.30;71.50
24426;DHT22;12611;44.446;26.000;2022-10-22T02:46:50;11.30;71.50
24426;DHT22;12611;44.446;26.000;2022-10-22T02:49:18;11.30;71.50
24426;DHT22;12611;44.446;26.000;2022-10-22T02:51:47;11.40;71.60
24426;DHT22;12611;44.446;26.000;2022-10-22T02:54:15;11.30;71.60
24426;DHT22;12611;44.446;26.000;2022-10-22T02:56:43;11.40;71.60
24426;DHT22;12611;44.446;26.000;2022-10-22T02:59:12;11.40;71.80
24426;DHT22;12611;44.446;26.000;2022-10-22T03:01:40;11.30;71.80
24426;DHT22;12611;44.446;26.000;2022-10-22T03:04:09;11.30;71.90
24426;DHT22;12611;44.446;26.000;2022-10-22T03:06:38;11.40;72.10
24426;DHT22;12611;44.446;26.000;2022-10-22T03:09:10;11.30;72.00
24426;DHT22;12611;44.446;26.000;2022-10-22T03:11:38;11.40;72.20
24426;DHT22;12611;44.446;26.000;2022-10-22T03:14:06;11.40;72.20
24426;DHT22;12611;44.446;26.000;2022-10-22T03:16:34;11.30;72.20
24426;DHT22;12611;44.446;26.000;2022-10-22T03:19:03;11.30;72.30
24426;DHT22;12611;44.446;26.000;2022-10-22T03:21:35;11.30;72.30
24426;DHT22;12611;44.446;26.000;2022-10-22T03:24:08;11.30;72.30
24426;DHT22;12611;44.446;26.000;2022-10-22T03:26:39;11.30;72.20
24426;DHT22;12611;44.446;26.000;2022-10-22T03:29:09;11.30;72.20
24426;DHT22;12611;44.446;26.000;2022-10-22T03:31:38;11.30;72.20
24426;DHT22;12611;44.446;26.000;2022-10-22T03:34:06;11.30;72.20
24426;DHT22;12611;44.446;26.000;2022-10-22T03:36:36;11.30;72.30
24426;DHT22;12611;44.446;26.000;2022-10-22T03:39:05;11.30;72.60
24426;DHT22;12611;44.446;26.000;2022-10-22T03:41:34;11.30;72.80
24426;DHT22;12611;44.446;26.000;2022-10-22T03:44:04;11.30;72.80
24426;DHT22;12611;44.446;26.000;2022-10-22T03:46:34;11.20;72.70
24426;DHT22;12611;44.446;26.000;2022-10-22T03:49:03;11.20;73.70
24426;DHT22;12611;44.446;26.000;2022-10-22T03:51:31;11.20;73.70
24426;DHT22;12611;44.446;26.000;2022-10-22T03:54:01;11.20;73.50
24426;DHT22;12611;44.446;26.000;2022-10-22T03:56:30;11.20;73.40
24426;DHT22;12611;44.446;26.000;2022-10-22T03:58:59;11.20;73.30
24426;DHT22;12611;44.446;26.000;2022-10-22T04:01:28;11.20;73.70
24426;DHT22;12611;44.446;26.000;2022-10-22T04:03:58;11.20;73.70
24426;DHT22;12611;44.446;26.000;2022-10-22T04:06:28;11.20;73.60
24426;DHT22;12611;44.446;26.000;2022-10-22T04:08:58;11.20;73.60
24426;DHT22;12611;44.446;26.000;2022-10-22T04:11:28;11.20;73.50
24426;DHT22;12611;44.446;26.000;2022-10-22T04:13:56;11.20;74.30
24426;DHT22;12611;44.446;26.000;2022-10-22T04:16:25;11.20;74.30
24426;DHT22;12611;44.446;26.000;2022-10-22T04:18:57;11.20;74.30
24426;DHT22;12611;44.446;26.000;2022-10-22T04:21:25;11.20;74.30
24426;DHT22;12611;44.446;26.000;2022-10-22T04:23:53;11.20;74.30
24426;DHT22;12611;44.446;26.000;2022-10-22T04:26:22;11.20;74.90
24426;DHT22;12611;44.446;26.000;2022-10-22T04:28:52;11.30;75.00
24426;DHT22;12611;44.446;26.000;2022-10-22T04:31:22;11.30;74.90
24426;DHT22;12611;44.446;26.000;2022-10-22T04:33:52;11.30;74.90
24426;DHT22;12611;44.446;26.000;2022-10-22T04:36:21;11.30;74.80
24426;DHT22;12611;44.446;26.000;2022-10-22T04:38:53;11.30;74.70
24426;DHT22;12611;44.446;26.000;2022-10-22T04:41:22;11.30;74.70
24426;DHT22;12611;44.446;26.000;2022-10-22T04:43:54;11.40;74.80
24426;DHT22;12611;44.446;26.000;2022-10-22T04:46:23;11.40;74.90
24426;DHT22;12611;44.446;26.000;2022-10-22T04:48:52;11.40;75.00
24426;DHT22;12611;44.446;26.000;2022-10-22T04:51:22;11.40;75.50
24426;DHT22;12611;44.446;26.000;2022-10-22T04:53:50;11.40;75.50
24426;DHT22;12611;44.446;26.000;2022-10-22T04:56:20;11.40;75.40
24426;DHT22;12611;44.446;26.000;2022-10-22T04:58:51;11.40;75.40
24426;DHT22;12611;44.446;26.000;2022-10-22T05:01:22;11.40;75.30
24426;DHT22;12611;44.446;26.000;2022-10-22T05:03:53;11.40;75.30
24426;DHT22;12611;44.446;26.000;2022-10-22T05:06:22;11.50;75.30
24426;DHT22;12611;44.446;26.000;2022-10-22T05:08:53;11.50;75.10
24426;DHT22;12611;44.446;26.000;2022-10-22T05:11:25;11.60;75.00
24426;DHT22;12611;44.446;26.000;2022-10-22T05:13:55;11.60;74.90
24426;DHT22;12611;44.446;26.000;2022-10-22T05:16:26;11.60;74.80
24426;DHT22;12611;44.446;26.000;2022-10-22T05:18:56;11.70;74.70
24426;DHT22;12611;44.446;26.000;2022-10-22T05:21:25;11.70;74.70
24426;DHT22;12611;44.446;26.000;2022-10-22T05:23:56;11.70;74.60
24426;DHT22;12611;44.446;26.000;2022-10-22T05:26:26;11.70;74.70
24426;DHT22;12611;44.446;26.000;2022-10-22T05:28:56;11.80;74.80
24426;DHT22;12611;44.446;26.000;2022-10-22T05:31:25;11.80;74.90
24426;DHT22;12611;44.446;26.000;2022-10-22T05:33:55;11.80;75.10
24426;DHT22;12611;44.446;26.000;2022-10-22T05:36:24;11.80;75.10
24426;DHT22;12611;44.446;26.000;2022-10-22T05:38:53;11.80;75.10
24426;DHT22;12611;44.446;26.000;2022-10-22T05:41:23;11.80;75.10
24426;DHT22;12611;44.446;26.000;2022-10-22T05:43:54;11.80;75.10
24426;DHT22;12611;44.446;26.000;2022-10-22T05:46:25;11.80;75.10
24426;DHT22;12611;44.446;26.000;2022-10-22T05:48:55;11.90;75.10
24426;DHT22;12611;44.446;26.000;2022-10-22T05:51:24;11.90;75.00
24426;DHT22;12611;44.446;26.000;2022-10-22T05:53:54;12.00;75.00
24426;DHT22;12611;44.446;26.000;2022-10-22T05:56:23;12.00;74.80
24426;DHT22;12611;44.446;26.000;2022-10-22T05:58:52;12.10;74.80
24426;DHT22;12611;44.446;26.000;2022-10-22T06:01:23;12.10;74.70
24426;DHT22;12611;44.446;26.000;2022-10-22T06:03:54;12.20;74.50
24426;DHT22;12611;44.446;26.000;2022-10-22T06:06:26;12.20;74.30
24426;DHT22;12611;44.446;26.000;2022-10-22T06:08:59;12.30;74.20
24426;DHT22;12611;44.446;26.000;2022-10-22T06:11:28;12.40;74.30
24426;DHT22;12611;44.446;26.000;2022-10-22T06:14:01;12.40;74.20
24426;DHT22;12611;44.446;26.000;2022-10-22T06:16:29;12.50;74.10
24426;DHT22;12611;44.446;26.000;2022-10-22T06:18:59;12.50;74.00
24426;DHT22;12611;44.446;26.000;2022-10-22T06:21:29;12.50;73.80
24426;DHT22;12611;44.446;26.000;2022-10-22T06:23:58;12.60;73.70
24426;DHT22;12611;44.446;26.000;2022-10-22T06:26:28;12.60;73.70
24426;DHT22;12611;44.446;26.000;2022-10-22T06:28:59;12.70;73.60
24426;DHT22;12611;44.446;26.000;2022-10-22T06:31:27;12.80;74.40
24426;DHT22;12611;44.446;26.000;2022-10-22T06:34:05;12.80;73.60
24426;DHT22;12611;44.446;26.000;2022-10-22T06:36:34;12.80;73.50
24426;DHT22;12611;44.446;26.000;2022-10-22T06:39:03;12.80;73.60
24426;DHT22;12611;44.446;26.000;2022-10-22T06:41:31;12.90;73.60
24426;DHT22;12611;44.446;26.000;2022-10-22T06:44:00;13.00;73.70
24426;DHT22;12611;44.446;26.000;2022-10-22T06:46:28;13.00;73.70
24426;DHT22;12611;44.446;26.000;2022-10-22T06:48:59;13.00;74.00
24426;DHT22;12611;44.446;26.000;2022-10-22T06:51:29;13.10;73.90
24426;DHT22;12611;44.446;26.000;2022-10-22T06:53:58;13.10;73.80
24426;DHT22;12611;44.446;26.000;2022-10-22T06:56:27;13.20;73.70
24426;DHT22;12611;44.446;26.000;2022-10-22T06:58:57;13.20;73.60
24426;DHT22;12611;44.446;26.000;2022-10-22T07:01:27;13.20;73.70
24426;DHT22;12611;44.446;26.000;2022-10-22T07:03:56;13.30;73.60
24426;DHT22;12611;44.446;26.000;2022-10-22T07:06:26;13.30;73.60
24426;DHT22;12611;44.446;26.000;2022-10-22T07:08:57;13.40;73.70
24426;DHT22;12611;44.446;26.000;2022-10-22T07:11:28;13.40;73.80
24426;DHT22;12611;44.446;26.000;2022-10-22T07:13:58;13.40;74.00
24426;DHT22;12611;44.446;26.000;2022-10-22T07:16:26;13.40;74.60
24426;DHT22;12611;44.446;26.000;2022-10-22T07:18:58;13.50;74.40
24426;DHT22;12611;44.446;26.000;2022-10-22T07:21:29;13.50;74.20
24426;DHT22;12611;44.446;26.000;2022-10-22T07:23:59;13.60;74.10
24426;DHT22;12611;44.446;26.000;2022-10-22T07:26:28;13.60;73.90
24426;DHT22;12611;44.446;26.000;2022-10-22T07:28:58;13.70;73.90
24426;DHT22;12611;44.446;26.000;2022-10-22T07:31:27;13.70;73.90
24426;DHT22;12611;44.446;26.000;2022-10-22T07:33:56;13.80;73.80
24426;DHT22;12611;44.446;26.000;2022-10-22T07:36:24;13.80;73.60
24426;DHT22;12611;44.446;26.000;2022-10-22T07:38:54;13.90;73.50
24426;DHT22;12611;44.446;26.000;2022-10-22T07:41:25;13.90;73.50
24426;DHT22;12611;44.446;26.000;2022-10-22T07:43:54;14.00;73.50
24426;DHT22;12611;44.446;26.000;2022-10-22T07:46:23;14.10;73.40
24426;DHT22;12611;44.446;26.000;2022-10-22T07:48:51;14.20;73.30
24426;DHT22;12611;44.446;26.000;2022-10-22T07:51:27;14.20;73.10
24426;DHT22;12611;44.446;26.000;2022-10-22T07:53:55;14.30;73.10
24426;DHT22;12611;44.446;26.000;2022-10-22T07:56:25;14.30;73.00
24426;DHT22;12611;44.446;26.000;2022-10-22T07:58:53;14.40;73.10
24426;DHT22;12611;44.446;26.000;2022-10-22T08:01:21;14.40;72.90
24426;DHT22;12611;44.446;26.000;2022-10-22T08:03:50;14.40;72.90
24426;DHT22;12611;44.446;26.000;2022-10-22T08:06:18;14.50;72.80
24426;DHT22;12611;44.446;26.000;2022-10-22T08:08:46;14.60;72.80
24426;DHT22;12611;44.446;26.000;2022-10-22T08:11:15;14.60;72.70
24426;DHT22;12611;44.446;26.000;2022-10-22T08:13:45;14.60;72.50
24426;DHT22;12611;44.446;26.000;2022-10-22T08:16:13;14.70;72.50
24426;DHT22;12611;44.446;26.000;2022-10-22T08:18:42;14.70;72.40
24426;DHT22;12611;44.446;26.000;2022-10-22T08:21:10;14.70;72.10
24426;DHT22;12611;44.446;26.000;2022-10-22T08:23:39;14.80;72.20
24426;DHT22;12611;44.446;26.000;2022-10-22T08:26:07;14.90;72.00
24426;DHT22;12611;44.446;26.000;2022-10-22T08:28:36;14.90;72.00
24426;DHT22;12611;44.446;26.000;2022-10-22T08:31:07;15.00;71.90
24426;DHT22;12611;44.446;26.000;2022-10-22T08:33:39;15.10;71.70
24426;DHT22;12611;44.446;26.000;2022-10-22T08:36:08;15.10;71.60
24426;DHT22;12611;44.446;26.000;2022-10-22T08:38:39;15.10;71.40
24426;DHT22;12611;44.446;26.000;2022-10-22T08:41:11;15.20;71.40
24426;DHT22;12611;44.446;26.000;2022-10-22T08:44:13;15.20;71.20
24426;DHT22;12611;44.446;26.000;2022-10-22T08:47:08;15.30;71.10
24426;DHT22;12611;44.446;26.000;2022-10-22T08:49:39;15.40;70.80
24426;DHT22;12611;44.446;26.000;2022-10-22T08:52:12;15.40;70.70
24426;DHT22;12611;44.446;26.000;2022-10-22T08:54:48;15.50;70.80
24426;DHT22;12611;44.446;26.000;2022-10-22T08:57:32;15.60;70.60
24426;DHT22;12611;44.446;26.000;2022-10-22T09:00:11;15.70;70.50
24426;DHT22;12611;44.446;26.000;2022-10-22T09:02:47;15.80;71.10
24426;DHT22;12611;44.446;26.000;2022-10-22T09:05:30;15.80;70.10
24426;DHT22;12611;44.446;26.000;2022-10-22T09:08:00;15.90;69.80
24426;DHT22;12611;44.446;26.000;2022-10-22T09:10:33;15.90;69.70
24426;DHT22;12611;44.446;26.000;2022-10-22T09:13:02;15.90;69.40
24426;DHT22;12611;44.446;26.000;2022-10-22T09:15:30;16.00;69.40
24426;DHT22;12611;44.446;26.000;2022-10-22T09:18:12;16.00;69.40
24426;DHT22;12611;44.446;26.000;2022-10-22T09:20:49;16.10;69.20
24426;DHT22;12611;44.446;26.000;2022-10-22T09:23:26;16.20;69.10
24426;DHT22;12611;44.446;26.000;2022-10-22T09:25:56;16.20;68.70
24426;DHT22;12611;44.446;26.000;2022-10-22T09:28:25;16.30;68.70
24426;DHT22;12611;44.446;26.000;2022-10-22T09:30:53;16.40;68.80
24426;DHT22;12611;44.446;26.000;2022-10-22T09:33:26;16.40;68.80
24426;DHT22;12611;44.446;26.000;2022-10-22T09:35:57;16.50;68.30
24426;DHT22;12611;44.446;26.000;2022-10-22T09:38:30;16.50;68.30
24426;DHT22;12611;44.446;26.000;2022-10-22T09:41:00;16.50;68.10
24426;DHT22;12611;44.446;26.000;2022-10-22T09:43:31;16.50;68.20
24426;DHT22;12611;44.446;26.000;2022-10-22T09:46:00;16.60;68.10
24426;DHT22;12611;44.446;26.000;2022-10-22T09:48:33;16.60;68.10
24426;DHT22;12611;44.446;26.000;2022-10-22T09:51:14;16.60;67.40
24426;DHT22;12611;44.446;26.000;2022-10-22T09:53:47;16.70;67.20
24426;DHT22;12611;44.446;26.000;2022-10-22T09:56:20;16.80;67.20
24426;DHT22;12611;44.446;26.000;2022-10-22T09:58:50;16.90;67.10
24426;DHT22;12611;44.446;26.000;2022-10-22T10:01:24;17.00;66.60
24426;DHT22;12611;44.446;26.000;2022-10-22T10:04:01;17.10;66.50
24426;DHT22;12611;44.446;26.000;2022-10-22T10:06:36;17.30;66.00
24426;DHT22;12611;44.446;26.000;2022-10-22T10:09:14;17.50;65.50
24426;DHT22;12611;44.446;26.000;2022-10-22T10:11:47;17.50;65.00
24426;DHT22;12611;44.446;26.000;2022-10-22T10:14:20;17.60;65.00
24426;DHT22;12611;44.446;26.000;2022-10-22T10:16:56;17.60;64.90
24426;DHT22;12611;44.446;26.000;2022-10-22T10:19:40;17.70;65.00
24426;DHT22;12611;44.446;26.000;2022-10-22T10:22:16;17.80;65.10
24426;DHT22;12611;44.446;26.000;2022-10-22T10:25:05;17.80;64.90
24426;DHT22;12611;44.446;26.000;2022-10-22T10:27:41;17.90;65.00
24426;DHT22;12611;44.446;26.000;2022-10-22T10:30:15;17.90;65.00
24426;DHT22;12611;44.446;26.000;2022-10-22T10:33:00;18.00;64.60
24426;DHT22;12611;44.446;26.000;2022-10-22T10:35:40;18.00;64.30
24426;DHT22;12611;44.446;26.000;2022-10-22T10:38:19;18.10;64.10
24426;DHT22;12611;44.446;26.000;2022-10-22T10:40:58;18.00;63.60
24426;DHT22;12611;44.446;26.000;2022-10-22T10:43:40;18.10;64.30
24426;DHT22;12611;44.446;26.000;2022-10-22T10:46:16;18.10;63.50
24426;DHT22;12611;44.446;26.000;2022-10-22T10:48:50;18.10;63.60
24426;DHT22;12611;44.446;26.000;2022-10-22T10:51:34;18.10;63.30
24426;DHT22;12611;44.446;26.000;2022-10-22T10:54:24;18.10;63.00
24426;DHT22;12611;44.446;26.000;2022-10-22T10:56:57;18.20;63.30
24426;DHT22;12611;44.446;26.000;2022-10-22T10:59:40;18.20;63.40
24426;DHT22;12611;44.446;26.000;2022-10-22T11:02:20;18.20;63.20
24426;DHT22;12611;44.446;26.000;2022-10-22T11:05:14;18.20;62.50
24426;DHT22;12611;44.446;26.000;2022-10-22T11:07:52;18.20;62.30
24426;DHT22;12611;44.446;26.000;2022-10-22T11:10:28;18.30;62.50
24426;DHT22;12611;44.446;26.000;2022-10-22T11:13:03;18.30;62.10
24426;DHT22;12611;44.446;26.000;2022-10-22T11:15:34;18.30;61.80
24426;DHT22;12611;44.446;26.000;2022-10-22T11:18:13;18.30;61.60
24426;DHT22;12611;44.446;26.000;2022-10-22T11:20:54;18.30;61.50
24426;DHT22;12611;44.446;26.000;2022-10-22T11:23:29;18.30;61.50
24426;DHT22;12611;44.446;26.000;2022-10-22T11:26:01;18.30;61.50
24426;DHT22;12611;44.446;26.000;2022-10-22T11:28:32;18.30;61.60
24426;DHT22;12611;44.446;26.000;2022-10-22T11:31:07;18.30;61.60
24426;DHT22;12611;44.446;26.000;2022-10-22T11:33:43;18.30;61.50
24426;DHT22;12611;44.446;26.000;2022-10-22T11:36:13;18.30;61.50
24426;DHT22;12611;44.446;26.000;2022-10-22T11:38:44;18.40;61.50
24426;DHT22;12611;44.446;26.000;2022-10-22T11:41:15;18.40;61.40
24426;DHT22;12611;44.446;26.000;2022-10-22T11:44:04;18.50;61.70
24426;DHT22;12611;44.446;26.000;2022-10-22T11:46:53;18.50;61.50
24426;DHT22;12611;44.446;26.000;2022-10-22T11:49:23;18.60;61.80
24426;DHT22;12611;44.446;26.000;2022-10-22T11:52:05;18.60;61.80
24426;DHT22;12611;44.446;26.000;2022-10-22T11:54:53;18.60;61.50
24426;DHT22;12611;44.446;26.000;2022-10-22T11:57:26;18.70;61.10
24426;DHT22;12611;44.446;26.000;2022-10-22T11:59:59;18.80;61.30
24426;DHT22;12611;44.446;26.000;2022-10-22T12:02:39;18.80;61.40
24426;DHT22;12611;44.446;26.000;2022-10-22T12:05:42;18.80;61.70
24426;DHT22;12611;44.446;26.000;2022-10-22T12:08:28;18.90;61.30
24426;DHT22;12611;44.446;26.000;2022-10-22T12:11:05;19.00;60.90
24426;DHT22;12611;44.446;26.000;2022-10-22T12:13:57;19.00;60.70
24426;DHT22;12611;44.446;26.000;2022-10-22T12:16:35;19.10;60.30
24426;DHT22;12611;44.446;26.000;2022-10-22T12:19:28;19.10;60.20
24426;DHT22;12611;44.446;26.000;2022-10-22T12:21:59;19.20;59.90
24426;DHT22;12611;44.446;26.000;2022-10-22T12:24:35;19.30;59.80
24426;DHT22;12611;44.446;26.000;2022-10-22T12:27:17;19.30;59.80
24426;DHT22;12611;44.446;26.000;2022-10-22T12:29:53;19.30;59.70
24426;DHT22;12611;44.446;26.000;2022-10-22T12:32:22;19.30;59.60
24426;DHT22;12611;44.446;26.000;2022-10-22T12:34:51;19.40;59.40
24426;DHT22;12611;44.446;26.000;2022-10-22T12:37:20;19.40;58.90
24426;DHT22;12611;44.446;26.000;2022-10-22T12:39:48;19.40;58.70
24426;DHT22;12611;44.446;26.000;2022-10-22T12:42:18;19.30;58.60
24426;DHT22;12611;44.446;26.000;2022-10-22T12:44:54;19.30;58.50
24426;DHT22;12611;44.446;26.000;2022-10-22T12:47:22;19.30;58.60
24426;DHT22;12611;44.446;26.000;2022-10-22T12:49:50;19.40;58.90
24426;DHT22;12611;44.446;26.000;2022-10-22T12:52:21;19.40;59.00
24426;DHT22;12611;44.446;26.000;2022-10-22T12:54:51;19.40;59.00
24426;DHT22;12611;44.446;26.000;2022-10-22T12:57:22;19.40;58.70
24426;DHT22;12611;44.446;26.000;2022-10-22T12:59:54;19.40;58.60
24426;DHT22;12611;44.446;26.000;2022-10-22T13:02:23;19.50;58.50
24426;DHT22;12611;44.446;26.000;2022-10-22T13:05:23;19.50;58.20
24426;DHT22;12611;44.446;26.000;2022-10-22T13:08:00;19.40;58.20
24426;DHT22;12611;44.446;26.000;2022-10-22T13:10:31;19.40;58.20
24426;DHT22;12611;44.446;26.000;2022-10-22T13:13:01;19.40;58.10
24426;DHT22;12611;44.446;26.000;2022-10-22T13:15:36;19.40;58.00
24426;DHT22;12611;44.446;26.000;2022-10-22T13:18:14;19.40;57.80
24426;DHT22;12611;44.446;26.000;2022-10-22T13:20:50;19.40;57.90
24426;DHT22;12611;44.446;26.000;2022-10-22T13:23:21;19.40;58.20
24426;DHT22;12611;44.446;26.000;2022-10-22T13:25:57;19.50;58.40
24426;DHT22;12611;44.446;26.000;2022-10-22T13:28:28;19.50;58.40
24426;DHT22;12611;44.446;26.000;2022-10-22T13:30:59;19.50;58.40
24426;DHT22;12611;44.446;26.000;2022-10-22T13:33:29;19.50;58.40
24426;DHT22;12611;44.446;26.000;2022-10-22T13:35:59;19.50;59.00
24426;DHT22;12611;44.446;26.000;2022-10-22T13:38:28;19.50;58.40
24426;DHT22;12611;44.446;26.000;2022-10-22T13:40:56;19.50;58.50
24426;DHT22;12611;44.446;26.000;2022-10-22T13:43:26;19.50;58.50
24426;DHT22;12611;44.446;26.000;2022-10-22T13:45:57;19.50;58.50
24426;DHT22;12611;44.446;26.000;2022-10-22T13:48:27;19.50;58.60
24426;DHT22;12611;44.446;26.000;2022-10-22T13:50:56;19.60;58.80
24426;DHT22;12611;44.446;26.000;2022-10-22T13:53:26;19.60;58.80
24426;DHT22;12611;44.446;26.000;2022-10-22T13:55:55;19.50;58.70
24426;DHT22;12611;44.446;26.000;2022-10-22T13:58:23;19.60;58.80
24426;DHT22;12611;44.446;26.000;2022-10-22T14:00:55;19.60;58.90
24426;DHT22;12611;44.446;26.000;2022-10-22T14:03:27;19.50;58.90
24426;DHT22;12611;44.446;26.000;2022-10-22T14:05:57;19.60;59.00
24426;DHT22;12611;44.446;26.000;2022-10-22T14:08:26;19.60;59.00
24426;DHT22;12611;44.446;26.000;2022-10-22T14:11:02;19.60;59.10
24426;DHT22;12611;44.446;26.000;2022-10-22T14:13:33;19.60;59.10
24426;DHT22;12611;44.446;26.000;2022-10-22T14:16:04;19.60;59.20
24426;DHT22;12611;44.446;26.000;2022-10-22T14:18:40;19.60;59.30
24426;DHT22;12611;44.446;26.000;2022-10-22T14:21:11;19.50;59.40
24426;DHT22;12611;44.446;26.000;2022-10-22T14:23:41;19.60;59.40
24426;DHT22;12611;44.446;26.000;2022-10-22T14:26:17;19.60;59.40
24426;DHT22;12611;44.446;26.000;2022-10-22T14:28:48;19.50;59.50
24426;DHT22;12611;44.446;26.000;2022-10-22T14:31:38;19.50;59.50
24426;DHT22;12611;44.446;26.000;2022-10-22T14:34:09;19.50;59.60
24426;DHT22;12611;44.446;26.000;2022-10-22T14:36:37;19.50;59.80
24426;DHT22;12611;44.446;26.000;2022-10-22T14:39:06;19.50;59.80
24426;DHT22;12611;44.446;26.000;2022-10-22T14:41:34;19.50;59.80
24426;DHT22;12611;44.446;26.000;2022-10-22T14:44:03;19.50;59.90
24426;DHT22;12611;44.446;26.000;2022-10-22T14:46:31;19.50;59.90
24426;DHT22;12611;44.446;26.000;2022-10-22T14:49:01;19.50;60.00
24426;DHT22;12611;44.446;26.000;2022-10-22T14:51:29;19.50;60.10
24426;DHT22;12611;44.446;26.000;2022-10-22T14:53:58;19.50;60.30
24426;DHT22;12611;44.446;26.000;2022-10-22T14:56:26;19.40;60.20
24426;DHT22;12611;44.446;26.000;2022-10-22T14:58:54;19.50;60.40
24426;DHT22;12611;44.446;26.000;2022-10-22T15:01:23;19.40;60.50
24426;DHT22;12611;44.446;26.000;2022-10-22T15:03:51;19.40;60.50
24426;DHT22;12611;44.446;26.000;2022-10-22T15:06:20;19.40;60.70
24426;DHT22;12611;44.446;26.000;2022-10-22T15:08:49;19.40;61.00
24426;DHT22;12611;44.446;26.000;2022-10-22T15:11:17;19.30;61.20
24426;DHT22;12611;44.446;26.000;2022-10-22T15:13:45;19.30;61.40
24426;DHT22;12611;44.446;26.000;2022-10-22T15:16:15;19.30;61.50
24426;DHT22;12611;44.446;26.000;2022-10-22T15:18:44;19.30;61.60
24426;DHT22;12611;44.446;26.000;2022-10-22T15:21:14;19.20;61.70
24426;DHT22;12611;44.446;26.000;2022-10-22T15:23:44;19.20;61.90
24426;DHT22;12611;44.446;26.000;2022-10-22T15:26:13;19.20;61.90
24426;DHT22;12611;44.446;26.000;2022-10-22T15:28:41;19.10;61.90
24426;DHT22;12611;44.446;26.000;2022-10-22T15:31:11;19.10;62.10
24426;DHT22;12611;44.446;26.000;2022-10-22T15:33:41;19.10;62.40
24426;DHT22;12611;44.446;26.000;2022-10-22T15:36:11;19.00;62.60
24426;DHT22;12611;44.446;26.000;2022-10-22T15:38:39;19.00;62.80
24426;DHT22;12611;44.446;26.000;2022-10-22T15:41:10;18.90;62.70
24426;DHT22;12611;44.446;26.000;2022-10-22T15:43:39;18.90;62.90
24426;DHT22;12611;44.446;26.000;2022-10-22T15:46:11;18.90;62.80
24426;DHT22;12611;44.446;26.000;2022-10-22T15:48:39;18.90;62.80